createdAt,value
2017-06-06T00:01:44.774Z,100033.37
2017-06-06T00:04:12.291Z,100036.82
2017-06-06T00:06:39.844Z,100027.73
2017-06-06T00:09:07.359Z,100025.52
2017-06-06T00:11:34.879Z,100023.25
2017-06-06T00:14:02.495Z,100018.33
2017-06-06T00:16:30.011Z,100017.72
2017-06-06T00:18:57.526Z,100015.88
2017-06-06T00:21:25.067Z,100017.84
2017-06-06T00:23:52.584Z,100009.19
2017-06-06T00:26:20.128Z,100003.20
2017-06-06T00:28:47.641Z,99997.36
2017-06-06T00:31:15.182Z,99988.30
2017-06-06T00:33:42.688Z,99983.32
2017-06-06T00:36:10.236Z,99980.30
2017-06-06T00:38:37.762Z,99972.11
2017-06-06T00:41:05.456Z,99970.06
2017-06-06T00:43:33.010Z,99971.36
2017-06-06T00:46:00.610Z,99960.32
2017-06-06T00:48:28.204Z,99953.22
2017-06-06T00:50:55.759Z,99956.20
2017-06-06T00:53:23.270Z,99944.96
2017-06-06T00:55:50.815Z,99945.72
2017-06-06T00:58:18.351Z,99942.20
2017-06-06T01:00:45.862Z,99931.48
2017-06-06T01:03:13.387Z,99920.96
2017-06-06T01:05:40.923Z,99925.94
2017-06-06T01:08:08.471Z,99920.01
2017-06-06T01:10:36.039Z,99915.94
2017-06-06T01:13:03.555Z,99907.83
2017-06-06T01:15:31.047Z,99906.98
2017-06-06T01:17:58.579Z,99906.72
2017-06-06T01:20:26.091Z,99901.31
2017-06-06T01:22:56.040Z,99892.17
2017-06-06T01:25:23.540Z,99885.66
2017-06-06T01:27:51.094Z,99882.75
2017-06-06T01:30:24.230Z,99867.73
2017-06-06T01:32:51.755Z,99868.91
2017-06-06T01:35:19.266Z,99866.47
2017-06-06T01:37:46.847Z,99861.87
2017-06-06T01:40:14.416Z,99853.11
2017-06-06T01:42:42.019Z,99850.90
2017-06-06T01:45:09.600Z,99845.14
2017-06-06T01:47:37.135Z,99839.70
2017-06-06T01:50:04.791Z,99845.74
2017-06-06T01:52:32.295Z,99837.98
2017-06-06T01:54:59.871Z,99836.80
2017-06-06T01:57:27.382Z,99832.31
2017-06-06T01:59:54.896Z,99825.27
2017-06-06T02:02:22.428Z,99817.84
2017-06-06T02:04:49.957Z,99811.02
2017-06-06T02:07:17.497Z,99807.84
2017-06-06T02:09:45.003Z,99803.20
2017-06-06T02:12:12.559Z,99798.22
2017-06-06T02:14:40.066Z,99799.91
2017-06-06T02:17:07.600Z,99792.62
2017-06-06T02:19:35.149Z,99785.59
2017-06-06T02:22:02.697Z,99775.30
2017-06-06T02:24:30.222Z,99771.98
2017-06-06T02:26:57.783Z,99766.72
2017-06-06T02:29:25.357Z,99760.23
2017-06-06T02:31:52.867Z,99760.13
2017-06-06T02:34:20.406Z,99753.98
2017-06-06T02:36:47.907Z,99745.34
2017-06-06T02:39:15.501Z,99744.91
2017-06-06T02:41:43.164Z,99740.27
2017-06-06T02:44:10.723Z,99737.65
2017-06-06T02:46:38.296Z,99729.86
2017-06-06T02:49:05.855Z,99730.64
2017-06-06T02:51:33.420Z,99730.88
2017-06-06T02:54:00.943Z,99727.66
2017-06-06T02:56:28.484Z,99723.44
2017-06-06T02:58:55.984Z,99711.24
2017-06-06T03:01:23.529Z,99720.80
2017-06-06T03:03:51.034Z,99706.83
2017-06-06T03:06:18.589Z,99704.13
2017-06-06T03:08:46.098Z,99693.35
2017-06-06T03:11:13.631Z,99691.36
2017-06-06T03:13:41.144Z,99687.63
2017-06-06T03:16:08.684Z,99682.21
2017-06-06T03:18:36.201Z,99678.15
2017-06-06T03:21:03.755Z,99667.89
2017-06-06T03:23:31.262Z,99670.20
2017-06-06T03:25:58.811Z,99661.39
2017-06-06T03:28:26.331Z,99653.94
2017-06-06T03:30:53.933Z,99655.83
2017-06-06T03:33:21.467Z,99653.33
2017-06-06T03:35:49.003Z,99646.22
2017-06-06T03:38:16.638Z,99635.92
2017-06-06T03:40:44.156Z,99632.81
2017-06-06T03:43:11.687Z,99633.28
2017-06-06T03:45:39.254Z,99615.91
2017-06-06T03:48:06.756Z,99612.97
2017-06-06T03:50:34.291Z,99600.54
2017-06-06T03:53:01.863Z,99594.88
2017-06-06T03:55:29.359Z,99592.82
2017-06-06T03:57:56.919Z,99586.69
2017-06-06T04:00:24.429Z,99591.36
2017-06-06T04:02:51.974Z,99595.19
2017-06-06T04:05:19.508Z,99598.91
2017-06-06T04:07:47.044Z,99594.17
2017-06-06T04:10:14.546Z,99594.17
2017-06-06T04:12:42.167Z,99588.31
2017-06-06T04:15:09.682Z,99590.42
2017-06-06T04:17:37.218Z,99583.67
2017-06-06T04:20:04.735Z,99578.28
2017-06-06T04:22:32.266Z,99576.09
2017-06-06T04:24:59.819Z,99573.61
2017-06-06T04:27:27.513Z,99568.42
2017-06-06T04:29:55.030Z,99569.24
2017-06-06T04:32:22.671Z,99577.38
2017-06-06T04:34:50.261Z,99572.53
2017-06-06T04:37:18.151Z,99572.36
2017-06-06T04:39:45.659Z,99554.52
2017-06-06T04:42:13.191Z,99562.36
2017-06-06T04:44:40.708Z,99546.00
2017-06-06T04:47:08.250Z,99550.27
2017-06-06T04:49:35.759Z,99549.02
2017-06-06T04:52:03.312Z,99544.14
2017-06-06T04:54:30.875Z,99539.25
2017-06-06T04:56:58.383Z,99547.82
2017-06-06T04:59:25.921Z,99545.28
2017-06-06T05:01:53.494Z,99540.88
2017-06-06T05:04:21.038Z,99524.58
2017-06-06T05:06:48.550Z,99531.39
2017-06-06T05:09:16.075Z,99523.66
2017-06-06T05:11:43.591Z,99525.81
2017-06-06T05:14:11.143Z,99528.63
2017-06-06T05:16:38.663Z,99522.44
2017-06-06T05:19:06.195Z,99527.23
2017-06-06T05:21:33.715Z,99529.94
2017-06-06T05:24:01.376Z,99527.78
2017-06-06T05:26:28.911Z,99515.75
2017-06-06T05:28:56.423Z,99517.80
2017-06-06T05:31:23.958Z,99508.91
2017-06-06T05:33:51.471Z,99501.77
2017-06-06T05:36:19.135Z,99503.90
2017-06-06T05:38:46.655Z,99512.94
2017-06-06T05:41:14.207Z,99514.57
2017-06-06T05:43:41.712Z,99508.77
2017-06-06T05:46:10.148Z,99508.48
2017-06-06T05:48:37.660Z,99506.95
2017-06-06T05:51:05.191Z,99507.56
2017-06-06T05:53:32.716Z,99505.98
2017-06-06T05:56:00.232Z,99505.61
2017-06-06T05:58:27.904Z,99511.97
2017-06-06T06:00:55.406Z,99499.21
2017-06-06T06:03:22.919Z,99491.55
2017-06-06T06:05:50.516Z,99498.70
2017-06-06T06:08:18.018Z,99500.19
2017-06-06T06:10:45.583Z,99486.33
2017-06-06T06:13:13.087Z,99488.59
2017-06-06T06:15:40.639Z,99482.80
2017-06-06T06:18:08.145Z,99481.70
2017-06-06T06:20:35.859Z,99471.14
2017-06-06T06:23:03.354Z,99461.50
2017-06-06T06:25:30.862Z,99467.21
2017-06-06T06:27:58.413Z,99457.64
2017-06-06T06:30:25.912Z,99466.33
2017-06-06T06:32:53.447Z,99450.61
2017-06-06T06:35:20.979Z,99448.22
2017-06-06T06:37:48.691Z,99446.75
2017-06-06T06:40:16.189Z,99443.92
2017-06-06T06:42:43.698Z,99459.72
2017-06-06T06:45:11.258Z,99455.72
2017-06-06T06:47:38.802Z,99463.88
2017-06-06T06:50:06.308Z,99462.63
2017-06-06T06:52:34.132Z,99471.60
2017-06-06T06:55:01.635Z,99470.56
2017-06-06T06:57:29.215Z,99474.48
2017-06-06T06:59:57.010Z,99480.75
2017-06-06T07:02:24.516Z,99474.09
2017-06-06T07:04:52.018Z,99470.41
2017-06-06T07:07:19.569Z,99467.77
2017-06-06T07:09:47.079Z,99465.85
2017-06-06T07:12:14.626Z,99456.09
2017-06-06T07:14:42.139Z,99462.34
2017-06-06T07:17:09.828Z,99465.23
2017-06-06T07:19:37.347Z,99458.69
2017-06-06T07:22:05.264Z,99449.55
2017-06-06T07:24:32.766Z,99441.12
2017-06-06T07:27:00.292Z,99434.57
2017-06-06T07:29:27.923Z,99435.59
2017-06-06T07:31:55.511Z,99433.28
2017-06-06T07:34:23.247Z,99433.66
2017-06-06T07:36:50.768Z,99445.66
2017-06-06T07:39:18.292Z,99434.91
2017-06-06T07:41:45.847Z,99442.13
2017-06-06T07:44:13.467Z,99442.70
2017-06-06T07:46:41.239Z,99427.50
2017-06-06T07:49:08.811Z,99431.59
2017-06-06T07:51:36.307Z,99429.31
2017-06-06T07:54:03.860Z,99432.61
2017-06-06T07:56:31.363Z,99428.31
2017-06-06T07:58:58.937Z,99419.55
2017-06-06T08:01:26.500Z,99420.70
2017-06-06T08:03:54.134Z,99425.23
2017-06-06T08:06:21.666Z,99415.28
2017-06-06T08:08:49.387Z,99418.86
2017-06-06T08:11:16.907Z,99425.06
2017-06-06T08:13:44.415Z,99403.48
2017-06-06T08:16:12.162Z,99414.05
2017-06-06T08:18:39.671Z,99409.60
2017-06-06T08:21:07.261Z,99418.28
2017-06-06T08:23:34.792Z,99428.68
2017-06-06T08:26:02.803Z,99413.55
2017-06-06T08:28:30.354Z,99426.76
2017-06-06T08:30:57.865Z,99428.61
2017-06-06T08:33:25.451Z,99435.21
2017-06-06T08:35:53.012Z,99423.45
2017-06-06T08:38:20.560Z,99407.88
2017-06-06T08:40:48.683Z,99422.03
2017-06-06T08:43:16.540Z,99410.38
2017-06-06T08:45:44.049Z,99408.24
2017-06-06T08:48:11.563Z,99416.69
2017-06-06T08:50:39.127Z,99418.65
2017-06-06T08:53:06.680Z,99415.30
2017-06-06T08:55:34.216Z,99417.09
2017-06-06T08:58:01.731Z,99414.34
2017-06-06T09:00:29.288Z,99407.71
2017-06-06T09:02:56.799Z,99398.70
2017-06-06T09:05:24.766Z,99409.13
2017-06-06T09:07:52.275Z,99395.22
2017-06-06T09:10:19.917Z,99404.89
2017-06-06T09:12:47.474Z,99409.26
2017-06-06T09:15:14.983Z,99412.03
2017-06-06T09:17:42.663Z,99415.05
2017-06-06T09:20:10.179Z,99416.61
2017-06-06T09:22:37.684Z,99420.53
2017-06-06T09:25:05.243Z,99425.88
2017-06-06T09:27:33.008Z,99423.67
2017-06-06T11:14:20.000Z,99595.33
2017-06-06T11:16:47.500Z,99590.10
2017-06-06T11:19:15.027Z,99597.53
2017-06-06T11:21:42.567Z,99608.89
2017-06-06T11:24:10.149Z,99593.44
2017-06-06T11:26:37.695Z,99608.88
2017-06-06T11:29:05.212Z,99596.16
2017-06-06T11:31:33.126Z,99602.13
2017-06-06T11:34:00.641Z,99612.48
2017-06-06T11:36:28.308Z,99607.67
2017-06-06T11:38:55.851Z,99619.05
2017-06-06T11:41:23.352Z,99623.54
2017-06-06T11:43:51.115Z,99622.77
2017-06-06T11:46:18.635Z,99626.66
2017-06-06T11:48:46.164Z,99633.81
2017-06-06T11:51:13.703Z,99648.60
2017-06-06T11:53:41.204Z,99642.34
2017-06-06T11:56:08.773Z,99652.67
2017-06-06T11:58:36.311Z,99645.17
2017-06-06T12:01:04.012Z,99646.55
2017-06-06T12:03:31.544Z,99648.34
2017-06-06T12:05:59.051Z,99646.04
2017-06-06T12:08:26.599Z,99641.63
2017-06-06T12:10:54.125Z,99649.27
2017-06-06T12:13:21.679Z,99648.49
2017-06-06T12:15:49.187Z,99653.47
2017-06-06T12:18:16.762Z,99657.95
2017-06-06T12:20:44.266Z,99660.58
2017-06-06T12:23:12.046Z,99658.41
2017-06-06T12:25:39.559Z,99647.11
2017-06-06T12:28:07.229Z,99664.94
2017-06-06T12:30:34.927Z,99662.54
2017-06-06T12:33:02.439Z,99660.80
2017-06-06T12:35:30.006Z,99660.09
2017-06-06T12:37:57.573Z,99660.13
2017-06-06T12:40:25.379Z,99673.48
2017-06-06T12:42:52.907Z,99665.17
2017-06-06T12:45:20.481Z,99673.27
2017-06-06T12:47:48.106Z,99684.41
2017-06-06T12:50:15.632Z,99679.44
2017-06-06T12:52:43.184Z,99667.43
2017-06-06T12:55:10.773Z,99672.14
2017-06-06T12:57:38.604Z,99701.08
2017-06-06T13:00:06.116Z,99673.42
2017-06-06T13:02:33.615Z,99684.73
2017-06-06T13:05:01.166Z,99690.89
2017-06-06T13:07:28.674Z,99684.84
2017-06-06T13:09:56.404Z,99708.03
2017-06-06T13:12:23.915Z,99684.64
2017-06-06T13:14:51.710Z,99681.14
2017-06-06T13:17:19.199Z,99685.69
2017-06-06T13:19:46.698Z,99683.03
2017-06-06T13:22:14.252Z,99702.31
2017-06-06T13:24:41.869Z,99677.84
2017-06-06T13:27:09.406Z,99690.62
2017-06-06T13:29:37.516Z,99683.85
2017-06-06T13:32:05.069Z,99678.75
2017-06-06T13:34:32.591Z,99690.23
2017-06-06T13:37:00.560Z,99687.06
2017-06-06T13:39:28.117Z,99674.66
2017-06-06T13:41:55.621Z,99686.58
2017-06-06T13:44:23.171Z,99678.95
2017-06-06T13:46:50.713Z,99693.91
2017-06-06T13:49:18.259Z,99690.38
2017-06-06T13:51:45.784Z,99694.77
2017-06-06T13:54:13.335Z,99695.36
2017-06-06T13:56:40.867Z,99696.39
2017-06-06T13:59:08.448Z,99719.56
2017-06-06T14:01:35.979Z,99714.64
2017-06-06T14:04:03.607Z,99718.33
2017-06-06T14:06:31.253Z,99751.42
2017-06-06T14:08:58.760Z,99767.00
2017-06-06T14:11:26.300Z,99776.88
2017-06-06T14:13:53.822Z,99802.08
2017-06-06T14:16:21.503Z,99767.84
2017-06-06T14:18:49.007Z,99784.02
2017-06-06T14:21:16.530Z,99794.70
2017-06-06T14:23:44.083Z,99798.67
2017-06-06T14:26:11.600Z,99796.34
2017-06-06T14:28:39.438Z,99807.14
2017-06-06T14:31:06.960Z,99810.05
2017-06-06T14:33:34.467Z,99806.27
2017-06-06T14:36:02.028Z,99818.91
2017-06-06T14:38:29.529Z,99801.94
2017-06-06T14:40:57.232Z,99802.08
2017-06-06T14:43:24.753Z,99807.49
2017-06-06T14:45:52.272Z,99807.23
2017-06-06T14:48:19.848Z,99791.64
2017-06-06T14:50:47.353Z,99781.36
2017-06-06T14:53:15.305Z,99811.29
2017-06-06T14:55:42.826Z,99821.09
2017-06-06T14:58:10.364Z,99810.86
2017-06-06T15:00:37.920Z,99816.22
2017-06-06T15:03:05.435Z,99843.55
2017-06-06T15:05:33.012Z,99822.80
2017-06-06T15:08:00.524Z,99816.33
2017-06-06T15:10:28.315Z,99817.97
2017-06-06T15:12:55.829Z,99818.97
2017-06-06T15:15:23.327Z,99831.00
2017-06-06T15:17:50.873Z,99826.67
2017-06-06T15:20:18.424Z,99830.80
2017-06-06T15:22:45.936Z,99825.09
2017-06-06T15:25:13.514Z,99826.27
2017-06-06T15:27:41.055Z,99823.09
2017-06-06T15:30:08.642Z,99832.91
2017-06-06T15:32:36.159Z,99831.22
2017-06-06T15:35:03.785Z,99827.48
2017-06-06T15:37:31.375Z,99841.52
2017-06-06T15:39:58.900Z,99844.34
2017-06-06T15:42:27.567Z,99834.53
2017-06-06T15:45:01.214Z,99845.34
2017-06-06T15:47:29.583Z,99856.30
2017-06-06T15:50:02.325Z,99850.25
2017-06-06T15:52:31.761Z,99837.83
2017-06-06T15:54:59.267Z,99851.17
2017-06-06T15:57:26.817Z,99845.73
2017-06-06T15:59:54.339Z,99842.91
2017-06-06T16:02:22.118Z,99841.36
2017-06-06T16:04:49.626Z,99840.84
2017-06-06T16:07:17.145Z,99874.41
2017-06-06T16:09:44.727Z,99850.42
2017-06-06T16:12:12.256Z,99850.70
2017-06-06T16:14:39.807Z,99858.47
2017-06-06T16:17:07.322Z,99869.98
2017-06-06T16:19:35.046Z,99873.55
2017-06-06T16:22:02.551Z,99852.65
2017-06-06T16:24:30.068Z,99856.52
2017-06-06T16:26:57.681Z,99873.84
2017-06-06T16:29:25.247Z,99877.09
2017-06-06T16:31:52.856Z,99869.91
2017-06-06T16:34:20.372Z,99872.80
2017-06-06T16:36:48.248Z,99877.31
2017-06-06T16:39:15.772Z,99877.92
2017-06-06T16:41:43.293Z,99875.06
2017-06-06T16:44:10.959Z,99870.79
2017-06-06T16:46:38.457Z,99886.27
2017-06-06T16:49:06.004Z,99872.86
2017-06-06T16:51:33.550Z,99872.55
2017-06-06T16:54:01.441Z,99888.46
2017-06-06T16:56:28.967Z,99889.38
2017-06-06T16:58:56.484Z,99896.22
2017-06-06T17:01:24.041Z,99896.09
2017-06-06T17:03:51.591Z,99905.30
2017-06-06T17:06:19.147Z,99913.38
2017-06-06T17:08:46.655Z,99913.66
2017-06-06T17:11:14.295Z,99916.08
2017-06-06T17:13:41.817Z,99927.04
2017-06-06T17:16:09.327Z,99929.95
2017-06-06T17:18:36.923Z,99940.13
2017-06-06T17:21:04.430Z,99923.95
2017-06-06T17:23:32.199Z,99927.63
2017-06-06T17:25:59.699Z,99924.77
2017-06-06T17:28:27.268Z,99943.72
2017-06-06T17:30:54.820Z,99949.73
2017-06-06T17:33:22.326Z,99955.27
2017-06-06T17:35:50.093Z,99937.38
2017-06-06T17:38:17.597Z,99925.28
2017-06-06T17:40:45.103Z,99931.52
2017-06-06T17:43:12.646Z,99936.36
2017-06-06T17:45:40.171Z,99934.67
2017-06-06T17:48:07.735Z,99937.12
2017-06-06T17:50:35.303Z,99939.05
2017-06-06T17:53:02.976Z,99939.16
2017-06-06T17:55:30.499Z,99955.52
2017-06-06T17:57:58.010Z,99936.38
2017-06-06T18:00:25.596Z,99937.11
2017-06-06T18:02:53.133Z,99936.64
2017-06-06T18:05:20.679Z,99949.65
2017-06-06T18:07:48.209Z,99939.16
2017-06-06T18:10:15.888Z,99960.59
2017-06-06T18:12:43.403Z,99977.08
2017-06-06T18:15:10.927Z,99965.18
2017-06-06T18:17:38.494Z,99975.80
2017-06-06T18:20:06.023Z,99976.77
2017-06-06T18:22:33.911Z,99974.12
2017-06-06T18:25:01.423Z,99978.06
2017-06-06T18:27:29.152Z,99973.79
2017-06-06T18:29:56.746Z,99978.63
2017-06-06T18:32:24.282Z,99981.42
2017-06-06T18:34:52.183Z,99980.65
2017-06-06T18:37:19.715Z,99985.90
2017-06-06T18:39:47.220Z,99983.63
2017-06-06T18:42:14.808Z,99977.57
2017-06-06T18:44:42.406Z,99985.53
2017-06-06T18:47:09.955Z,99977.20
2017-06-06T18:49:37.466Z,99985.51
2017-06-06T18:52:04.982Z,99981.47
2017-06-06T18:54:32.543Z,99989.76
2017-06-06T18:57:00.061Z,99982.51
2017-06-06T18:59:27.739Z,99981.30
2017-06-06T19:01:55.253Z,99982.57
2017-06-06T19:04:22.815Z,99993.88
2017-06-06T19:06:50.426Z,99987.42
2017-06-06T19:09:18.023Z,99998.17
2017-06-06T19:11:45.655Z,100006.35
2017-06-06T19:14:13.208Z,100000.55
2017-06-06T19:16:40.768Z,100003.02
2017-06-06T19:19:08.331Z,100010.91
2017-06-06T19:21:35.886Z,100019.31
2017-06-06T19:24:03.426Z,100018.44
2017-06-06T19:26:30.959Z,100026.47
2017-06-06T19:28:58.556Z,100031.39
2017-06-06T19:31:26.079Z,100029.41
2017-06-06T19:33:53.639Z,100029.08
2017-06-06T19:36:21.183Z,100042.99
2017-06-06T19:38:48.772Z,100062.56
2017-06-06T19:41:16.304Z,100045.91
2017-06-06T19:43:43.968Z,100055.33
2017-06-06T19:46:11.539Z,100080.52
2017-06-06T19:48:39.092Z,100062.30
2017-06-06T19:51:07.506Z,100058.48
2017-06-06T19:53:35.019Z,100060.37
2017-06-06T19:56:02.560Z,100058.83
2017-06-06T19:58:30.107Z,100065.31
2017-06-06T20:00:57.643Z,100067.08
2017-06-06T20:03:25.158Z,100071.22
2017-06-06T20:05:52.726Z,100066.95
2017-06-06T20:08:20.256Z,100071.28
2017-06-06T20:10:47.792Z,100081.84
2017-06-06T20:13:15.356Z,100083.38
2017-06-06T20:15:43.010Z,100080.11
2017-06-06T20:18:10.561Z,100084.50
2017-06-06T20:20:38.102Z,100081.14
2017-06-06T20:23:05.645Z,100081.05
2017-06-06T20:25:33.179Z,100082.98
2017-06-06T20:28:00.755Z,100082.41
2017-06-06T20:30:28.283Z,100091.81
2017-06-06T20:32:55.806Z,100092.23
2017-06-06T20:35:23.506Z,100094.05
2017-06-06T20:37:51.021Z,100098.22
2017-06-06T20:40:18.528Z,100096.67
2017-06-06T20:42:46.100Z,100092.89
2017-06-06T20:45:13.623Z,100100.72
2017-06-06T20:47:41.599Z,100102.06
2017-06-06T20:50:09.133Z,100106.59
2017-06-06T20:52:36.669Z,100106.33
2017-06-06T20:55:04.219Z,100108.25
2017-06-06T20:57:31.740Z,100108.98
2017-06-06T20:59:59.311Z,100114.05
2017-06-06T21:02:26.824Z,100123.03
2017-06-06T21:04:54.564Z,100128.81
2017-06-06T21:07:22.071Z,100123.37
2017-06-06T21:09:49.611Z,100129.33
2017-06-06T21:12:17.179Z,100126.23
2017-06-06T21:14:44.726Z,100131.52
2017-06-06T21:17:12.280Z,100141.05
2017-06-06T21:19:40.615Z,100138.34
2017-06-06T21:22:08.161Z,100135.19
2017-06-06T21:24:35.675Z,100134.25
2017-06-06T21:27:03.588Z,100132.60
2017-06-06T21:29:31.175Z,100138.19
2017-06-06T21:31:58.762Z,100135.37
2017-06-06T21:34:26.313Z,100143.59
2017-06-06T21:36:53.831Z,100150.13
2017-06-06T21:39:21.365Z,100153.13
2017-06-06T21:41:48.885Z,100147.36
2017-06-06T21:44:16.449Z,100152.13
2017-06-06T21:46:43.981Z,100161.55
2017-06-06T21:49:11.714Z,100162.30
2017-06-06T21:51:39.229Z,100167.04
2017-06-06T21:54:06.735Z,100170.49
2017-06-06T21:56:34.283Z,100167.06
2017-06-06T21:59:01.791Z,100168.73
2017-06-06T22:01:29.327Z,100167.99
2017-06-06T22:03:56.835Z,100165.89
2017-06-06T22:06:24.376Z,100172.95
2017-06-06T22:08:51.900Z,100179.13
2017-06-06T22:11:19.423Z,100173.98
2017-06-06T22:13:46.931Z,100177.37
2017-06-06T22:16:14.519Z,100181.65
2017-06-06T22:18:42.075Z,100188.15
2017-06-06T22:21:09.963Z,100190.31
2017-06-06T22:23:37.543Z,100191.09
2017-06-06T22:26:05.087Z,100203.37
2017-06-06T22:28:32.618Z,100196.64
2017-06-06T22:31:00.142Z,100203.03
2017-06-06T22:33:27.691Z,100204.05
2017-06-06T22:35:55.239Z,100203.29
2017-06-06T22:38:22.795Z,100206.36
2017-06-06T22:40:50.299Z,100215.38
2017-06-06T22:43:17.815Z,100206.18
2017-06-06T22:45:45.358Z,100215.98
2017-06-06T22:48:12.871Z,100215.94
2017-06-06T22:50:40.416Z,100217.95
2017-06-06T22:53:07.988Z,100213.50
2017-06-06T22:55:35.563Z,100219.51
2017-06-06T22:58:03.073Z,100219.87
2017-06-06T23:00:30.628Z,100223.05
2017-06-06T23:02:58.161Z,100222.44
2017-06-06T23:05:25.685Z,100215.20
2017-06-06T23:07:53.240Z,100215.00
2017-06-06T23:10:20.768Z,100217.11
2017-06-06T23:12:48.334Z,100231.03
2017-06-06T23:15:15.867Z,100225.86
2017-06-06T23:17:43.411Z,100227.72
2017-06-06T23:20:10.947Z,100230.80
2017-06-06T23:22:38.487Z,100235.46
2017-06-06T23:25:06.039Z,100237.23
2017-06-06T23:27:33.548Z,100232.69
2017-06-06T23:30:01.055Z,100234.55
2017-06-06T23:32:28.608Z,100232.89
2017-06-06T23:34:56.109Z,100231.84
2017-06-06T23:37:23.634Z,100239.52
2017-06-06T23:39:51.147Z,100249.57
2017-06-06T23:42:18.808Z,100239.83
2017-06-06T23:44:46.331Z,100247.16
2017-06-06T23:47:13.868Z,100253.18
2017-06-06T23:49:41.383Z,100244.27
2017-06-06T23:52:08.911Z,100253.62
2017-06-06T23:54:36.431Z,100253.38
2017-06-06T23:57:04.104Z,100255.39
2017-06-06T23:59:31.659Z,100256.52
